sensor_id;sensor_type;location;lat;lon;timestamp;pressure;altitude;pressure_sealevel;temperature;humidity
23643;BME280;11998;55.788;37.572;2022-08-18T00:00:49;99292.09;;;20.96;100.00
23643;BME280;11998;55.788;37.572;2022-08-18T00:03:06;99292.25;;;20.93;100.00
23643;BME280;11998;55.788;37.572;2022-08-18T00:04:08;99283.31;;;20.93;100.00
23643;BME280;11998;55.788;37.572;2022-08-18T00:05:10;99283.53;;;20.90;100.00
23643;BME280;11998;55.788;37.572;2022-08-18T00:06:14;99291.63;;;20.90;100.00
23643;BME280;11998;55.788;37.572;2022-08-18T00:07:28;99284.28;;;20.92;100.00
23643;BME280;11998;55.788;37.572;2022-08-18T00:08:29;99287.94;;;20.91;100.00
23643;BME280;11998;55.788;37.572;2022-08-18T00:09:29;99286.22;;;20.90;100.00
23643;BME280;11998;55.788;37.572;2022-08-18T00:10:30;99282.78;;;20.88;100.00
23643;BME280;11998;55.788;37.572;2022-08-18T00:11:34;99291.84;;;20.87;100.00
23643;BME280;11998;55.788;37.572;2022-08-18T00:12:40;99286.44;;;20.87;100.00
23643;BME280;11998;55.788;37.572;2022-08-18T00:13:42;99283.84;;;20.85;100.00
23643;BME280;11998;55.788;37.572;2022-08-18T00:14:44;99288.16;;;20.88;100.00
23643;BME280;11998;55.788;37.572;2022-08-18T00:15:45;99287.59;;;20.82;100.00
23643;BME280;11998;55.788;37.572;2022-08-18T00:16:46;99288.47;;;20.83;100.00
23643;BME280;11998;55.788;37.572;2022-08-18T00:17:46;99290.28;;;20.82;100.00
23643;BME280;11998;55.788;37.572;2022-08-18T00:18:48;99295.66;;;20.82;100.00
23643;BME280;11998;55.788;37.572;2022-08-18T00:19:49;99291.38;;;20.80;100.00
23643;BME280;11998;55.788;37.572;2022-08-18T00:20:50;99300.31;;;20.80;100.00
23643;BME280;11998;55.788;37.572;2022-08-18T00:21:51;99303.00;;;20.80;100.00
23643;BME280;11998;55.788;37.572;2022-08-18T00:22:52;99303.19;;;20.77;100.00
23643;BME280;11998;55.788;37.572;2022-08-18T00:23:55;99299.53;;;20.78;100.00
23643;BME280;11998;55.788;37.572;2022-08-18T00:24:56;99288.13;;;20.75;100.00
23643;BME280;11998;55.788;37.572;2022-08-18T00:25:57;99292.66;;;20.74;100.00
23643;BME280;11998;55.788;37.572;2022-08-18T00:26:59;99289.19;;;20.72;100.00
23643;BME280;11998;55.788;37.572;2022-08-18T00:28:01;99290.91;;;20.73;100.00
23643;BME280;11998;55.788;37.572;2022-08-18T00:29:02;99287.47;;;20.71;100.00
23643;BME280;11998;55.788;37.572;2022-08-18T00:30:05;99291.09;;;20.70;100.00
23643;BME280;11998;55.788;37.572;2022-08-18T00:31:06;99297.44;;;20.69;100.00
23643;BME280;11998;55.788;37.572;2022-08-18T00:32:21;99295.72;;;20.68;100.00
23643;BME280;11998;55.788;37.572;2022-08-18T00:33:22;99302.28;;;20.64;100.00
23643;BME280;11998;55.788;37.572;2022-08-18T00:34:23;99296.69;;;20.67;100.00
23643;BME280;11998;55.788;37.572;2022-08-18T00:35:30;99300.34;;;20.66;100.00
23643;BME280;11998;55.788;37.572;2022-08-18T00:36:31;99300.56;;;20.63;100.00
23643;BME280;11998;55.788;37.572;2022-08-18T00:37:33;99309.63;;;20.62;100.00
23643;BME280;11998;55.788;37.572;2022-08-18T00:38:34;99305.94;;;20.63;100.00
23643;BME280;11998;55.788;37.572;2022-08-18T00:39:35;99302.50;;;20.61;100.00
23643;BME280;11998;55.788;37.572;2022-08-18T00:40:47;99306.16;;;20.60;100.00
23643;BME280;11998;55.788;37.572;2022-08-18T00:41:48;99309.81;;;20.59;100.00
23643;BME280;11998;55.788;37.572;2022-08-18T00:42:52;99306.34;;;20.57;100.00
23643;BME280;11998;55.788;37.572;2022-08-18T00:43:54;99311.72;;;20.57;100.00
23643;BME280;11998;55.788;37.572;2022-08-18T00:44:55;99321.72;;;20.55;100.00
23643;BME280;11998;55.788;37.572;2022-08-18T00:45:56;99317.31;;;20.54;100.00
23643;BME280;11998;55.788;37.572;2022-08-18T00:46:57;99317.31;;;20.54;100.00
23643;BME280;11998;55.788;37.572;2022-08-18T00:47:58;99311.94;;;20.54;100.00
23643;BME280;11998;55.788;37.572;2022-08-18T00:48:59;99320.00;;;20.54;100.00
23643;BME280;11998;55.788;37.572;2022-08-18T00:50:00;99317.53;;;20.51;100.00
23643;BME280;11998;55.788;37.572;2022-08-18T00:51:04;99325.59;;;20.51;100.00
23643;BME280;11998;55.788;37.572;2022-08-18T00:52:08;99324.84;;;20.49;100.00
23643;BME280;11998;55.788;37.572;2022-08-18T00:53:27;99321.19;;;20.50;100.00
23643;BME280;11998;55.788;37.572;2022-08-18T00:54:30;99323.09;;;20.48;100.00
23643;BME280;11998;55.788;37.572;2022-08-18T00:55:32;99319.56;;;20.47;100.00
23643;BME280;11998;55.788;37.572;2022-08-18T00:56:38;99317.91;;;20.45;100.00
23643;BME280;11998;55.788;37.572;2022-08-18T00:57:41;99319.63;;;20.46;100.00
23643;BME280;11998;55.788;37.572;2022-08-18T00:58:49;99325.13;;;20.44;100.00
23643;BME280;11998;55.788;37.572;2022-08-18T01:00:00;99329.75;;;20.42;100.00
23643;BME280;11998;55.788;37.572;2022-08-18T01:01:10;99324.53;;;20.39;100.00
23643;BME280;11998;55.788;37.572;2022-08-18T01:02:18;99326.34;;;20.39;100.00
23643;BME280;11998;55.788;37.572;2022-08-18T01:03:21;99322.81;;;20.38;100.00
23643;BME280;11998;55.788;37.572;2022-08-18T01:04:30;99320.00;;;20.40;100.00
23643;BME280;11998;55.788;37.572;2022-08-18T01:05:39;99322.81;;;20.38;100.00
23643;BME280;11998;55.788;37.572;2022-08-18T01:06:47;99318.38;;;20.37;100.00
23643;BME280;11998;55.788;37.572;2022-08-18T01:07:51;99320.22;;;20.37;100.00
23643;BME280;11998;55.788;37.572;2022-08-18T01:08:51;99319.34;;;20.36;100.00
23643;BME280;11998;55.788;37.572;2022-08-18T01:09:52;99326.66;;;20.34;100.00
23643;BME280;11998;55.788;37.572;2022-08-18T01:10:53;99317.69;;;20.34;100.00
23643;BME280;11998;55.788;37.572;2022-08-18T01:11:53;99321.28;;;20.34;100.00
23643;BME280;11998;55.788;37.572;2022-08-18T01:12:56;99313.09;;;20.36;100.00
23643;BME280;11998;55.788;37.572;2022-08-18T01:13:57;99317.69;;;20.34;100.00
23643;BME280;11998;55.788;37.572;2022-08-18T01:14:58;99315.97;;;20.33;100.00
23643;BME280;11998;55.788;37.572;2022-08-18T01:16:00;99322.31;;;20.32;100.00
23643;BME280;11998;55.788;37.572;2022-08-18T01:17:24;99328.66;;;20.31;100.00
23643;BME280;11998;55.788;37.572;2022-08-18T01:18:43;99326.19;;;20.28;100.00
23643;BME280;11998;55.788;37.572;2022-08-18T01:20:04;99328.22;;;20.24;100.00
23643;BME280;11998;55.788;37.572;2022-08-18T01:21:27;99329.25;;;20.21;100.00
23643;BME280;11998;55.788;37.572;2022-08-18T01:23:52;99335.78;;;20.17;100.00
23643;BME280;11998;55.788;37.572;2022-08-18T01:24:56;99341.38;;;20.14;100.00
23643;BME280;11998;55.788;37.572;2022-08-18T01:26:16;99331.59;;;20.13;100.00
23643;BME280;11998;55.788;37.572;2022-08-18T01:27:17;99330.81;;;20.11;100.00
23643;BME280;11998;55.788;37.572;2022-08-18T01:28:18;99339.84;;;20.10;100.00
23643;BME280;11998;55.788;37.572;2022-08-18T01:29:20;99330.81;;;20.11;100.00
23643;BME280;11998;55.788;37.572;2022-08-18T01:30:22;99332.75;;;20.09;100.00
23643;BME280;11998;55.788;37.572;2022-08-18T01:32:30;99334.47;;;20.10;100.00
23643;BME280;11998;55.788;37.572;2022-08-18T01:33:33;99334.47;;;20.10;100.00
23643;BME280;11998;55.788;37.572;2022-08-18T01:34:35;99335.44;;;20.09;100.00
23643;BME280;11998;55.788;37.572;2022-08-18T01:35:36;99334.47;;;20.10;100.00
23643;BME280;11998;55.788;37.572;2022-08-18T01:36:39;99331.78;;;20.10;100.00
23643;BME280;11998;55.788;37.572;2022-08-18T01:37:41;99328.22;;;20.10;100.00
23643;BME280;11998;55.788;37.572;2022-08-18T01:38:52;99330.13;;;20.08;100.00
23643;BME280;11998;55.788;37.572;2022-08-18T01:39:52;99332.91;;;20.06;100.00
23643;BME280;11998;55.788;37.572;2022-08-18T01:40:53;99341.94;;;20.05;100.00
23643;BME280;11998;55.788;37.572;2022-08-18T01:41:53;99333.13;;;20.03;100.00
23643;BME280;11998;55.788;37.572;2022-08-18T01:42:54;99331.38;;;20.02;100.00
23643;BME280;11998;55.788;37.572;2022-08-18T01:43:57;99329.47;;;20.04;100.00
23643;BME280;11998;55.788;37.572;2022-08-18T01:44:58;99332.56;;;19.98;100.00
23643;BME280;11998;55.788;37.572;2022-08-18T01:45:59;99327.19;;;19.98;100.00
23643;BME280;11998;55.788;37.572;2022-08-18T01:47:00;99331.59;;;19.99;100.00
23643;BME280;11998;55.788;37.572;2022-08-18T01:48:01;99331.59;;;19.99;100.00
23643;BME280;11998;55.788;37.572;2022-08-18T01:49:03;99331.75;;;19.96;100.00
23643;BME280;11998;55.788;37.572;2022-08-18T01:50:04;99331.75;;;19.96;100.00
23643;BME280;11998;55.788;37.572;2022-08-18T01:51:08;99334.44;;;19.96;100.00
23643;BME280;11998;55.788;37.572;2022-08-18T01:52:13;99330.03;;;19.95;100.00
23643;BME280;11998;55.788;37.572;2022-08-18T01:53:15;99332.72;;;19.95;100.00
23643;BME280;11998;55.788;37.572;2022-08-18T01:54:17;99333.88;;;19.91;100.00
23643;BME280;11998;55.788;37.572;2022-08-18T01:55:19;99337.44;;;19.91;100.00
23643;BME280;11998;55.788;37.572;2022-08-18T01:56:19;99327.94;;;19.86;100.00
23643;BME280;11998;55.788;37.572;2022-08-18T01:57:20;99335.16;;;19.85;100.00
23643;BME280;11998;55.788;37.572;2022-08-18T01:58:21;99331.41;;;19.88;100.00
23643;BME280;11998;55.788;37.572;2022-08-18T01:59:27;99335.16;;;19.85;100.00
23643;BME280;11998;55.788;37.572;2022-08-18T02:00:28;99332.53;;;19.84;100.00
23643;BME280;11998;55.788;37.572;2022-08-18T02:01:28;99331.88;;;19.80;100.00
23643;BME280;11998;55.788;37.572;2022-08-18T02:02:30;99333.97;;;19.75;100.00
23643;BME280;11998;55.788;37.572;2022-08-18T02:03:35;99337.63;;;19.74;100.00
23643;BME280;11998;55.788;37.572;2022-08-18T02:04:37;99333.28;;;19.72;100.00
23643;BME280;11998;55.788;37.572;2022-08-18T02:05:42;99350.31;;;19.72;100.00
23643;BME280;11998;55.788;37.572;2022-08-18T02:06:44;99337.91;;;19.70;100.00
23643;BME280;11998;55.788;37.572;2022-08-18T02:07:44;99342.31;;;19.71;100.00
23643;BME280;11998;55.788;37.572;2022-08-18T02:08:45;99341.44;;;19.70;100.00
23643;BME280;11998;55.788;37.572;2022-08-18T02:09:46;99345.97;;;19.70;100.00
23643;BME280;11998;55.788;37.572;2022-08-18T02:10:47;99344.03;;;19.72;100.00
23643;BME280;11998;55.788;37.572;2022-08-18T02:11:47;99360.16;;;19.72;100.00
23643;BME280;11998;55.788;37.572;2022-08-18T02:12:48;99348.47;;;19.73;100.00
23643;BME280;11998;55.788;37.572;2022-08-18T02:13:48;99356.72;;;19.70;100.00
23643;BME280;11998;55.788;37.572;2022-08-18T02:14:49;99358.53;;;19.69;100.00
23643;BME280;11998;55.788;37.572;2022-08-18T02:15:51;99364.00;;;19.68;100.00
23643;BME280;11998;55.788;37.572;2022-08-18T02:16:51;99367.47;;;19.70;100.00
23643;BME280;11998;55.788;37.572;2022-08-18T02:17:52;99360.34;;;19.69;100.00
23643;BME280;11998;55.788;37.572;2022-08-18T02:18:52;99356.72;;;19.70;100.00
23643;BME280;11998;55.788;37.572;2022-08-18T02:19:54;99368.31;;;19.70;100.00
23643;BME280;11998;55.788;37.572;2022-08-18T02:20:56;99368.31;;;19.70;100.00
23643;BME280;11998;55.788;37.572;2022-08-18T02:21:57;99370.06;;;19.71;100.00
23643;BME280;11998;55.788;37.572;2022-08-18T02:23:00;99371.09;;;19.69;100.00
23643;BME280;11998;55.788;37.572;2022-08-18T02:24:02;99358.44;;;19.71;100.00
23643;BME280;11998;55.788;37.572;2022-08-18T02:25:03;99364.69;;;19.71;100.00
23643;BME280;11998;55.788;37.572;2022-08-18T02:26:08;99354.97;;;19.69;100.00
23643;BME280;11998;55.788;37.572;2022-08-18T02:27:11;99361.22;;;19.69;100.00
23643;BME280;11998;55.788;37.572;2022-08-18T02:28:12;99366.59;;;19.69;100.00
23643;BME280;11998;55.788;37.572;2022-08-18T02:29:13;99355.94;;;19.68;100.00
23643;BME280;11998;55.788;37.572;2022-08-18T02:30:16;99364.78;;;19.70;100.00
23643;BME280;11998;55.788;37.572;2022-08-18T02:31:20;99360.34;;;19.69;100.00
23643;BME280;11998;55.788;37.572;2022-08-18T02:32:22;99364.88;;;19.68;100.00
23643;BME280;11998;55.788;37.572;2022-08-18T02:33:22;99363.16;;;19.67;100.00
23643;BME280;11998;55.788;37.572;2022-08-18T02:34:23;99362.09;;;19.70;100.00
23643;BME280;11998;55.788;37.572;2022-08-18T02:35:24;99363.81;;;19.71;100.00
23643;BME280;11998;55.788;37.572;2022-08-18T02:36:25;99367.47;;;19.70;100.00
23643;BME280;11998;55.788;37.572;2022-08-18T02:37:25;99365.53;;;19.72;100.00
23643;BME280;11998;55.788;37.572;2022-08-18T02:38:26;99366.69;;;19.68;100.00
23643;BME280;11998;55.788;37.572;2022-08-18T02:39:27;99367.66;;;19.67;100.00
23643;BME280;11998;55.788;37.572;2022-08-18T02:40:28;99362.09;;;19.70;100.00
23643;BME280;11998;55.788;37.572;2022-08-18T02:41:29;99355.19;;;19.65;100.00
23643;BME280;11998;55.788;37.572;2022-08-18T02:42:30;99372.25;;;19.64;100.00
23643;BME280;11998;55.788;37.572;2022-08-18T02:43:31;99362.94;;;19.70;100.00
23643;BME280;11998;55.788;37.572;2022-08-18T02:44:31;99367.38;;;19.71;100.00
23643;BME280;11998;55.788;37.572;2022-08-18T02:45:32;99370.06;;;19.71;100.00
23643;BME280;11998;55.788;37.572;2022-08-18T02:46:34;99362.09;;;19.70;100.00
23643;BME280;11998;55.788;37.572;2022-08-18T02:47:35;99371.31;;;19.65;100.00
23643;BME280;11998;55.788;37.572;2022-08-18T02:48:35;99371.31;;;19.65;100.00
23643;BME280;11998;55.788;37.572;2022-08-18T02:49:36;99372.06;;;19.68;100.00
23643;BME280;11998;55.788;37.572;2022-08-18T02:50:36;99374.56;;;19.71;100.00
23643;BME280;11998;55.788;37.572;2022-08-18T02:51:46;99372.66;;;19.73;100.00
23643;BME280;11998;55.788;37.572;2022-08-18T02:52:47;99362.78;;;19.73;100.00
23643;BME280;11998;55.788;37.572;2022-08-18T02:53:48;99369.78;;;19.76;100.00
23643;BME280;11998;55.788;37.572;2022-08-18T02:54:48;99367.97;;;19.76;100.00
23643;BME280;11998;55.788;37.572;2022-08-18T02:55:49;99378.03;;;19.73;100.00
23643;BME280;11998;55.788;37.572;2022-08-18T02:56:51;99364.97;;;19.81;100.00
23643;BME280;11998;55.788;37.572;2022-08-18T02:57:51;99370.34;;;19.81;100.00
23643;BME280;11998;55.788;37.572;2022-08-18T02:59:55;99381.88;;;19.83;100.00
23643;BME280;11998;55.788;37.572;2022-08-18T03:00:55;99379.19;;;19.83;100.00
23643;BME280;11998;55.788;37.572;2022-08-18T03:01:56;99381.66;;;19.72;100.00
23643;BME280;11998;55.788;37.572;2022-08-18T03:02:56;99379.78;;;19.74;100.00
23643;BME280;11998;55.788;37.572;2022-08-18T03:03:58;99377.66;;;19.79;100.00
23643;BME280;11998;55.788;37.572;2022-08-18T03:04:59;99377.84;;;19.76;100.00
23643;BME280;11998;55.788;37.572;2022-08-18T03:05:59;99382.47;;;19.74;100.00
23643;BME280;11998;55.788;37.572;2022-08-18T03:07:04;99381.41;;;19.76;100.00
23643;BME280;11998;55.788;37.572;2022-08-18T03:08:05;99370.34;;;19.81;100.00
23643;BME280;11998;55.788;37.572;2022-08-18T03:09:07;99383.69;;;19.82;100.00
23643;BME280;11998;55.788;37.572;2022-08-18T03:10:09;99384.41;;;19.86;100.00
23643;BME280;11998;55.788;37.572;2022-08-18T03:11:09;99379.03;;;19.86;100.00
23643;BME280;11998;55.788;37.572;2022-08-18T03:12:10;99374.59;;;19.85;100.00
23643;BME280;11998;55.788;37.572;2022-08-18T03:13:10;99377.00;;;19.89;100.00
23643;BME280;11998;55.788;37.572;2022-08-18T03:14:12;99382.09;;;19.94;100.00
23643;BME280;11998;55.788;37.572;2022-08-18T03:15:12;99376.72;;;19.94;100.00
23643;BME280;11998;55.788;37.572;2022-08-18T03:16:13;99377.66;;;19.93;100.00
23643;BME280;11998;55.788;37.572;2022-08-18T03:17:15;99377.56;;;19.94;100.00
23643;BME280;11998;55.788;37.572;2022-08-18T03:18:15;99378.44;;;19.95;100.00
23643;BME280;11998;55.788;37.572;2022-08-18T03:19:16;99386.34;;;19.98;100.00
23643;BME280;11998;55.788;37.572;2022-08-18T03:20:17;99385.38;;;19.99;100.00
23643;BME280;11998;55.788;37.572;2022-08-18T03:21:20;99378.28;;;19.98;100.00
23643;BME280;11998;55.788;37.572;2022-08-18T03:22:21;99379.78;;;20.02;100.00
23643;BME280;11998;55.788;37.572;2022-08-18T03:23:21;99381.31;;;20.06;100.00
23643;BME280;11998;55.788;37.572;2022-08-18T03:24:22;99380.56;;;20.04;100.00
23643;BME280;11998;55.788;37.572;2022-08-18T03:25:23;99384.97;;;20.05;100.00
23643;BME280;11998;55.788;37.572;2022-08-18T03:26:24;99370.00;;;20.15;100.00
23643;BME280;11998;55.788;37.572;2022-08-18T03:27:25;99375.88;;;20.22;100.00
23643;BME280;11998;55.788;37.572;2022-08-18T03:28:25;99375.56;;;20.27;100.00
23643;BME280;11998;55.788;37.572;2022-08-18T03:29:26;99366.91;;;20.36;100.00
23643;BME280;11998;55.788;37.572;2022-08-18T03:30:27;99365.66;;;20.41;100.00
23643;BME280;11998;55.788;37.572;2022-08-18T03:31:29;99368.75;;;20.49;100.00
23643;BME280;11998;55.788;37.572;2022-08-18T03:32:30;99374.22;;;20.62;100.00
23643;BME280;11998;55.788;37.572;2022-08-18T03:33:31;99365.72;;;20.68;100.00
23643;BME280;11998;55.788;37.572;2022-08-18T03:34:32;99363.41;;;20.76;100.00
23643;BME280;11998;55.788;37.572;2022-08-18T03:35:35;99363.56;;;20.88;100.00
23643;BME280;11998;55.788;37.572;2022-08-18T03:36:36;99366.41;;;20.99;100.00
23643;BME280;11998;55.788;37.572;2022-08-18T03:37:37;99364.06;;;21.07;100.00
23643;BME280;11998;55.788;37.572;2022-08-18T03:38:39;99364.09;;;21.20;100.00
23643;BME280;11998;55.788;37.572;2022-08-18T03:39:40;99356.22;;;21.44;100.00
23643;BME280;11998;55.788;37.572;2022-08-18T03:40:40;99354.50;;;21.55;100.00
23643;BME280;11998;55.788;37.572;2022-08-18T03:41:43;99358.63;;;21.61;100.00
23643;BME280;11998;55.788;37.572;2022-08-18T03:42:44;99361.44;;;21.97;100.00
23643;BME280;11998;55.788;37.572;2022-08-18T03:43:44;99354.75;;;22.16;100.00
23643;BME280;11998;55.788;37.572;2022-08-18T03:44:45;99355.78;;;22.51;100.00
23643;BME280;11998;55.788;37.572;2022-08-18T03:45:45;99349.94;;;22.94;100.00
23643;BME280;11998;55.788;37.572;2022-08-18T03:46:46;99350.09;;;23.28;100.00
23643;BME280;11998;55.788;37.572;2022-08-18T03:47:47;99340.19;;;23.75;100.00
23643;BME280;11998;55.788;37.572;2022-08-18T03:48:51;99340.97;;;24.21;100.00
23643;BME280;11998;55.788;37.572;2022-08-18T03:49:52;99346.16;;;24.47;100.00
23643;BME280;11998;55.788;37.572;2022-08-18T03:50:53;99337.69;;;25.06;100.00
23643;BME280;11998;55.788;37.572;2022-08-18T03:51:53;99340.69;;;25.65;96.00
23643;BME280;11998;55.788;37.572;2022-08-18T03:52:54;99340.63;;;26.18;90.33
23643;BME280;11998;55.788;37.572;2022-08-18T03:54:00;99336.00;;;26.80;83.93
23643;BME280;11998;55.788;37.572;2022-08-18T03:55:01;99340.19;;;27.03;80.68
23643;BME280;11998;55.788;37.572;2022-08-18T03:56:14;99342.47;;;27.75;73.32
23643;BME280;11998;55.788;37.572;2022-08-18T03:57:17;99337.19;;;28.30;68.89
23643;BME280;11998;55.788;37.572;2022-08-18T03:58:18;99334.34;;;28.77;65.27
23643;BME280;11998;55.788;37.572;2022-08-18T03:59:21;99328.69;;;29.16;61.50
23643;BME280;11998;55.788;37.572;2022-08-18T04:00:22;99331.06;;;29.01;60.14
23643;BME280;11998;55.788;37.572;2022-08-18T04:01:30;99332.56;;;29.31;58.29
23643;BME280;11998;55.788;37.572;2022-08-18T04:02:31;99333.25;;;29.95;55.79
23643;BME280;11998;55.788;37.572;2022-08-18T04:03:32;99337.78;;;30.38;52.96
23643;BME280;11998;55.788;37.572;2022-08-18T04:04:33;99333.22;;;30.81;50.63
23643;BME280;11998;55.788;37.572;2022-08-18T04:05:38;99337.13;;;31.29;48.25
23643;BME280;11998;55.788;37.572;2022-08-18T04:06:44;99335.75;;;31.73;46.48
23643;BME280;11998;55.788;37.572;2022-08-18T04:07:48;99329.84;;;32.41;44.52
23643;BME280;11998;55.788;37.572;2022-08-18T04:08:56;99327.34;;;33.02;41.94
23643;BME280;11998;55.788;37.572;2022-08-18T04:09:57;99317.09;;;33.19;41.00
23643;BME280;11998;55.788;37.572;2022-08-18T04:10:58;99320.06;;;33.40;40.37
23643;BME280;11998;55.788;37.572;2022-08-18T04:12:05;99320.03;;;33.86;38.91
23643;BME280;11998;55.788;37.572;2022-08-18T04:13:09;99320.91;;;34.31;37.70
23643;BME280;11998;55.788;37.572;2022-08-18T04:14:12;99312.56;;;34.24;37.51
23643;BME280;11998;55.788;37.572;2022-08-18T04:15:13;99315.47;;;34.82;36.83
23643;BME280;11998;55.788;37.572;2022-08-18T04:16:14;99323.47;;;35.49;34.88
23643;BME280;11998;55.788;37.572;2022-08-18T04:17:19;99324.72;;;35.96;34.08
23643;BME280;11998;55.788;37.572;2022-08-18T04:18:22;99314.97;;;36.69;32.60
23643;BME280;11998;55.788;37.572;2022-08-18T04:19:23;99326.25;;;37.22;31.51
23643;BME280;11998;55.788;37.572;2022-08-18T04:20:24;99313.97;;;37.57;30.63
23643;BME280;11998;55.788;37.572;2022-08-18T04:21:24;99318.25;;;37.80;30.09
23643;BME280;11998;55.788;37.572;2022-08-18T04:22:25;99323.38;;;37.96;29.81
23643;BME280;11998;55.788;37.572;2022-08-18T04:23:25;99319.09;;;38.27;29.08
23643;BME280;11998;55.788;37.572;2022-08-18T04:24:28;99315.59;;;38.58;28.54
23643;BME280;11998;55.788;37.572;2022-08-18T04:25:29;99323.88;;;39.16;27.92
23643;BME280;11998;55.788;37.572;2022-08-18T04:26:34;99313.88;;;39.46;27.21
23643;BME280;11998;55.788;37.572;2022-08-18T04:27:36;99314.66;;;39.60;26.82
23643;BME280;11998;55.788;37.572;2022-08-18T04:28:38;99315.28;;;39.87;26.63
23643;BME280;11998;55.788;37.572;2022-08-18T04:29:39;99317.69;;;40.08;26.23
23643;BME280;11998;55.788;37.572;2022-08-18T04:30:39;99312.78;;;40.47;25.55
23643;BME280;11998;55.788;37.572;2022-08-18T04:31:40;99308.84;;;40.73;24.84
23643;BME280;11998;55.788;37.572;2022-08-18T04:32:40;99312.09;;;40.88;24.57
23643;BME280;11998;55.788;37.572;2022-08-18T04:33:42;99310.97;;;41.07;24.35
23643;BME280;11998;55.788;37.572;2022-08-18T04:34:43;99315.63;;;41.25;24.26
23643;BME280;11998;55.788;37.572;2022-08-18T04:35:44;99308.78;;;41.40;23.83
23643;BME280;11998;55.788;37.572;2022-08-18T04:36:46;99312.22;;;41.53;23.55
23643;BME280;11998;55.788;37.572;2022-08-18T04:37:47;99308.91;;;41.86;23.31
23643;BME280;11998;55.788;37.572;2022-08-18T04:38:47;99311.94;;;42.08;22.88
23643;BME280;11998;55.788;37.572;2022-08-18T04:39:48;99316.91;;;42.06;22.78
23643;BME280;11998;55.788;37.572;2022-08-18T04:40:49;99310.50;;;42.06;22.83
23643;BME280;11998;55.788;37.572;2022-08-18T04:41:50;99315.09;;;42.23;22.62
23643;BME280;11998;55.788;37.572;2022-08-18T04:42:51;99313.19;;;42.12;22.74
23643;BME280;11998;55.788;37.572;2022-08-18T04:43:53;99319.09;;;42.28;22.22
23643;BME280;11998;55.788;37.572;2022-08-18T04:44:54;99315.06;;;42.47;22.34
23643;BME280;11998;55.788;37.572;2022-08-18T04:45:55;99310.47;;;42.41;22.19
23643;BME280;11998;55.788;37.572;2022-08-18T04:47:00;99314.50;;;42.57;21.67
23643;BME280;11998;55.788;37.572;2022-08-18T04:48:01;99316.41;;;42.68;21.70
23643;BME280;11998;55.788;37.572;2022-08-18T04:49:02;99313.50;;;43.03;21.65
23643;BME280;11998;55.788;37.572;2022-08-18T04:50:03;99319.00;;;42.98;21.44
23643;BME280;11998;55.788;37.572;2022-08-18T04:51:11;99318.03;;;43.32;21.20
23643;BME280;11998;55.788;37.572;2022-08-18T04:52:12;99314.50;;;43.54;20.90
23643;BME280;11998;55.788;37.572;2022-08-18T04:53:31;99326.34;;;43.78;20.64
23643;BME280;11998;55.788;37.572;2022-08-18T04:54:47;99319.09;;;43.93;20.68
23643;BME280;11998;55.788;37.572;2022-08-18T04:55:49;99315.47;;;43.93;20.43
23643;BME280;11998;55.788;37.572;2022-08-18T04:56:51;99314.16;;;44.01;20.02
23643;BME280;11998;55.788;37.572;2022-08-18T04:57:52;99316.19;;;44.22;20.03
23643;BME280;11998;55.788;37.572;2022-08-18T04:59:01;99324.53;;;44.17;19.95
23643;BME280;11998;55.788;37.572;2022-08-18T05:00:04;99315.34;;;44.21;19.80
23643;BME280;11998;55.788;37.572;2022-08-18T05:01:05;99321.28;;;44.25;19.89
23643;BME280;11998;55.788;37.572;2022-08-18T05:02:06;99325.84;;;44.31;19.81
23643;BME280;11998;55.788;37.572;2022-08-18T05:03:07;99320.22;;;43.64;20.10
23643;BME280;11998;55.788;37.572;2022-08-18T05:04:08;99324.47;;;43.50;20.30
23643;BME280;11998;55.788;37.572;2022-08-18T05:05:09;99319.78;;;43.38;20.62
23643;BME280;11998;55.788;37.572;2022-08-18T05:06:10;99318.22;;;43.59;20.46
23643;BME280;11998;55.788;37.572;2022-08-18T05:07:12;99314.50;;;43.87;19.92
23643;BME280;11998;55.788;37.572;2022-08-18T05:08:12;99316.88;;;44.12;19.88
23643;BME280;11998;55.788;37.572;2022-08-18T05:09:13;99317.31;;;44.04;20.17
23643;BME280;11998;55.788;37.572;2022-08-18T05:10:14;99321.63;;;43.95;19.92
23643;BME280;11998;55.788;37.572;2022-08-18T05:11:16;99321.72;;;44.17;19.84
23643;BME280;11998;55.788;37.572;2022-08-18T05:12:17;99324.31;;;44.23;19.32
23643;BME280;11998;55.788;37.572;2022-08-18T05:13:17;99325.72;;;44.43;19.65
23643;BME280;11998;55.788;37.572;2022-08-18T05:14:18;99329.84;;;44.40;19.47
23643;BME280;11998;55.788;37.572;2022-08-18T05:15:20;99323.84;;;44.48;19.19
23643;BME280;11998;55.788;37.572;2022-08-18T05:16:21;99330.22;;;44.44;19.18
23643;BME280;11998;55.788;37.572;2022-08-18T05:17:22;99318.16;;;44.60;19.37
23643;BME280;11998;55.788;37.572;2022-08-18T05:18:30;99324.19;;;44.74;19.22
23643;BME280;11998;55.788;37.572;2022-08-18T05:19:31;99324.31;;;44.84;18.96
23643;BME280;11998;55.788;37.572;2022-08-18T05:20:31;99325.97;;;44.80;19.07
23643;BME280;11998;55.788;37.572;2022-08-18T05:21:33;99327.25;;;44.72;19.02
23643;BME280;11998;55.788;37.572;2022-08-18T05:22:40;99330.19;;;44.61;19.18
23643;BME280;11998;55.788;37.572;2022-08-18T05:23:42;99326.94;;;44.69;19.20
23643;BME280;11998;55.788;37.572;2022-08-18T05:24:43;99334.16;;;44.48;19.22
23643;BME280;11998;55.788;37.572;2022-08-18T05:25:44;99329.44;;;44.48;19.17
23643;BME280;11998;55.788;37.572;2022-08-18T05:26:44;99333.69;;;44.34;19.40
23643;BME280;11998;55.788;37.572;2022-08-18T05:27:45;99334.66;;;44.23;19.38
23643;BME280;11998;55.788;37.572;2022-08-18T05:28:46;99327.38;;;44.05;19.65